createdAt,value
2023-01-23T00:04:19.578Z,21.60
2023-01-23T00:09:24.834Z,22.85
2023-01-23T00:14:28.524Z,22.73
2023-01-23T00:19:31.882Z,22.88
2023-01-23T00:24:36.641Z,22.25
2023-01-23T00:29:40.031Z,21.08
2023-01-23T00:34:43.535Z,21.60
2023-01-23T00:39:50.922Z,24.23
2023-01-23T00:44:54.333Z,21.73
2023-01-23T00:49:59.145Z,22.35
2023-01-23T00:55:03.920Z,21.98
2023-01-23T01:00:08.322Z,23.80
2023-01-23T01:05:11.828Z,23.27
2023-01-23T01:10:18.726Z,22.88
2023-01-23T01:15:22.252Z,22.70
2023-01-23T01:20:26.931Z,23.13
2023-01-23T01:25:31.831Z,21.85
2023-01-23T01:30:36.789Z,21.67
2023-01-23T01:35:41.660Z,21.75
2023-01-23T01:40:46.451Z,21.92
2023-01-23T01:46:09.586Z,21.90
2023-01-23T01:51:19.578Z,21.85
2023-01-23T01:56:24.733Z,21.70
2023-01-23T02:01:28.534Z,20.80
2023-01-23T02:06:32.254Z,22.80
2023-01-23T02:11:37.540Z,22.33
2023-01-23T02:16:46.457Z,23.30
2023-01-23T02:21:53.765Z,23.65
2023-01-23T02:26:58.596Z,24.23
2023-01-23T02:32:02.028Z,25.25
2023-01-23T02:37:07.597Z,24.25
2023-01-23T02:42:13.317Z,23.08
2023-01-23T02:47:16.932Z,24.50
2023-01-23T02:52:20.331Z,22.67
2023-01-23T02:57:25.133Z,25.33
2023-01-23T03:02:28.792Z,22.88
2023-01-23T03:07:32.320Z,22.48
2023-01-23T03:12:39.709Z,23.20
2023-01-23T03:17:43.140Z,23.10
2023-01-23T03:22:46.946Z,23.67
2023-01-23T03:27:51.724Z,22.42
2023-01-23T03:32:55.213Z,23.05
2023-01-23T03:37:58.631Z,23.27
2023-01-23T03:43:03.905Z,24.55
2023-01-23T03:48:07.703Z,23.67
2023-01-23T03:53:11.379Z,25.55
2023-01-23T03:58:16.464Z,23.88
2023-01-23T04:03:19.830Z,25.38
2023-01-23T04:08:23.757Z,24.85
2023-01-23T04:13:29.116Z,25.85
2023-01-23T04:18:32.616Z,24.83
2023-01-23T04:23:37.038Z,25.13
2023-01-23T04:28:42.217Z,25.73
2023-01-23T04:33:45.675Z,23.83
2023-01-23T04:38:49.168Z,24.40
2023-01-23T04:43:53.925Z,23.88
2023-01-23T04:48:57.305Z,23.90
2023-01-23T04:54:00.736Z,27.00
2023-01-23T04:59:05.586Z,25.75
2023-01-23T05:04:09.209Z,23.98
2023-01-23T05:09:13.578Z,24.08
2023-01-23T05:14:19.757Z,22.35
2023-01-23T05:19:23.371Z,24.98
2023-01-23T05:24:26.807Z,23.38
2023-01-23T05:29:31.629Z,24.33
2023-01-23T05:34:35.076Z,22.63
2023-01-23T05:39:38.733Z,23.75
2023-01-23T05:44:43.440Z,23.33
2023-01-23T05:49:46.976Z,22.55
2023-01-23T05:54:51.067Z,22.65
2023-01-23T05:59:55.930Z,23.52
2023-01-23T06:04:59.300Z,24.38
2023-01-23T06:10:02.693Z,25.83
2023-01-23T06:15:09.410Z,24.70
2023-01-23T06:20:13.672Z,24.98
2023-01-23T06:25:18.394Z,23.45
2023-01-23T06:30:23.381Z,26.65
2023-01-23T06:35:26.747Z,23.65
2023-01-23T06:40:30.096Z,23.50
2023-01-23T06:45:35.065Z,25.52
2023-01-23T06:50:39.579Z,23.52
2023-01-23T06:55:43.144Z,26.88
2023-01-23T07:00:48.392Z,31.90
2023-01-23T07:05:52.279Z,35.28
2023-01-23T07:10:55.719Z,38.75
2023-01-23T07:16:00.927Z,28.65
2023-01-23T07:21:07.319Z,25.70
2023-01-23T07:26:12.244Z,25.48
2023-01-23T07:31:17.507Z,23.65
2023-01-23T07:36:21.228Z,23.55
2023-01-23T07:41:24.542Z,25.65
2023-01-23T07:46:29.351Z,23.88
2023-01-23T07:51:32.778Z,22.95
2023-01-23T07:56:36.168Z,22.08
2023-01-23T08:01:40.970Z,22.48
2023-01-23T08:06:44.436Z,21.50
2023-01-23T08:11:47.818Z,21.23
2023-01-23T08:16:53.549Z,21.98
2023-01-23T08:21:57.002Z,21.15
2023-01-23T08:27:00.436Z,22.90
2023-01-23T08:32:05.768Z,23.73
2023-01-23T08:37:09.181Z,20.77
2023-01-23T08:42:12.629Z,21.63
2023-01-23T08:47:17.961Z,23.63
2023-01-23T08:52:21.411Z,23.05
2023-01-23T08:57:25.149Z,21.48
2023-01-23T09:02:29.874Z,21.83
2023-01-23T09:07:36.385Z,21.88
2023-01-23T09:12:41.689Z,20.90
2023-01-23T09:17:46.566Z,20.17
2023-01-23T09:22:49.995Z,25.13
2023-01-23T09:27:53.353Z,23.80
2023-01-23T09:32:58.168Z,21.52
2023-01-23T09:38:01.762Z,25.20
2023-01-23T09:43:14.178Z,25.00
2023-01-23T09:48:25.981Z,22.88
2023-01-23T09:53:36.154Z,22.75
2023-01-23T09:58:44.971Z,23.15
2023-01-23T10:03:50.027Z,23.63
2023-01-23T10:09:21.309Z,22.27
2023-01-23T10:15:06.027Z,23.85
2023-01-23T10:20:30.618Z,21.52
2023-01-23T10:25:41.028Z,24.10
2023-01-23T10:30:50.532Z,23.33
2023-01-23T10:35:59.555Z,22.52
2023-01-23T10:41:14.906Z,21.05
2023-01-23T10:46:19.733Z,24.50
2023-01-23T10:51:50.722Z,24.48
2023-01-23T10:56:58.614Z,26.55
2023-01-23T11:02:19.171Z,23.33
2023-01-23T11:07:26.156Z,23.80
2023-01-23T11:12:31.914Z,26.00
2023-01-23T11:17:35.481Z,25.90
2023-01-23T11:22:42.538Z,22.90
2023-01-23T11:27:58.097Z,24.17
2023-01-23T11:33:13.227Z,24.98
2023-01-23T11:38:30.616Z,22.83
2023-01-23T11:43:34.553Z,23.63
2023-01-23T11:48:55.052Z,25.77
2023-01-23T11:54:17.219Z,22.77
2023-01-23T11:59:43.863Z,26.45
2023-01-23T12:05:02.856Z,25.48
2023-01-23T12:10:19.819Z,24.02
2023-01-23T12:15:33.382Z,24.48
2023-01-23T12:20:51.567Z,24.15
2023-01-23T12:26:04.238Z,24.80
2023-01-23T12:31:29.291Z,24.20
2023-01-23T12:37:08.504Z,24.77
2023-01-23T12:42:21.593Z,24.85
2023-01-23T12:47:28.896Z,26.23
2023-01-23T12:52:39.342Z,27.08
2023-01-23T12:58:00.216Z,25.80
2023-01-23T13:03:46.368Z,28.33
2023-01-23T13:09:12.051Z,26.25
2023-01-23T13:14:31.489Z,27.52
2023-01-23T13:20:00.745Z,28.00
2023-01-23T13:25:17.656Z,28.45
2023-01-23T13:30:42.481Z,27.45
2023-01-23T13:35:56.125Z,26.63
2023-01-23T13:41:29.891Z,26.35
2023-01-23T14:25:19.287Z,26.65
2023-01-23T14:30:27.473Z,24.92
2023-01-23T14:35:33.786Z,25.50
2023-01-23T14:40:50.213Z,28.00
2023-01-23T14:46:00.952Z,25.05
2023-01-23T14:51:10.227Z,27.52
2023-01-23T14:56:13.911Z,24.70
2023-01-23T15:01:17.535Z,25.67
2023-01-23T15:06:24.019Z,28.20
2023-01-23T15:11:28.877Z,25.30
2023-01-23T15:16:36.147Z,26.25
2023-01-23T15:21:42.945Z,29.23
2023-01-23T15:26:57.619Z,28.33
2023-01-23T15:32:02.734Z,29.77
2023-01-23T15:37:22.771Z,28.33
2023-01-23T15:42:29.477Z,29.05
2023-01-23T15:47:33.843Z,29.30
2023-01-23T15:52:49.436Z,31.80
2023-01-23T15:57:53.520Z,29.45
2023-01-23T16:02:58.319Z,29.85
2023-01-23T16:08:05.819Z,32.47
2023-01-23T16:13:13.608Z,33.45
2023-01-23T16:18:17.125Z,31.48
2023-01-23T16:23:25.871Z,33.20
2023-01-23T16:28:30.229Z,32.30
2023-01-23T16:33:34.022Z,35.15
2023-01-23T16:38:38.842Z,32.40
2023-01-23T16:43:42.447Z,32.90
2023-01-23T16:48:45.850Z,31.15
2023-01-23T16:53:55.388Z,30.85
2023-01-23T16:58:59.339Z,31.25
2023-01-23T17:04:04.978Z,32.05
2023-01-23T17:09:12.111Z,30.08
2023-01-23T17:14:19.296Z,34.13
2023-01-23T17:19:29.965Z,34.47
2023-01-23T17:24:35.241Z,30.60
2023-01-23T17:29:38.774Z,30.77
2023-01-23T17:34:49.918Z,34.42
2023-01-23T17:39:55.702Z,35.10
2023-01-23T17:44:59.191Z,34.60
2023-01-23T17:50:03.472Z,31.33
2023-01-23T17:55:14.548Z,32.90
2023-01-23T18:00:20.566Z,31.77
2023-01-23T18:05:25.738Z,30.90
2023-01-23T18:10:30.980Z,31.95
2023-01-23T18:15:41.342Z,33.47
2023-01-23T18:20:46.176Z,32.35
2023-01-23T18:26:01.582Z,31.95
2023-01-23T18:31:10.430Z,31.65
2023-01-23T18:36:26.430Z,33.40
2023-01-23T18:41:31.978Z,33.58
2023-01-23T18:46:36.216Z,31.27
2023-01-23T18:51:46.577Z,30.88
2023-01-23T18:57:09.237Z,30.88
2023-01-23T19:02:21.691Z,30.00
2023-01-23T19:07:25.604Z,32.60
2023-01-23T19:12:38.850Z,29.65
2023-01-23T19:17:46.838Z,31.08
2023-01-23T19:23:01.969Z,28.45
2023-01-23T19:28:09.914Z,32.25
2023-01-23T19:33:16.941Z,34.33
2023-01-23T19:38:22.618Z,30.30
2023-01-23T19:43:28.934Z,27.58
2023-01-23T19:48:32.352Z,31.10
2023-01-23T19:53:35.711Z,31.50
2023-01-23T19:58:41.447Z,30.75
2023-01-23T20:03:44.809Z,30.45
2023-01-23T20:08:48.335Z,32.38
2023-01-23T20:13:53.516Z,29.70
2023-01-23T20:18:56.976Z,31.73
2023-01-23T20:24:00.749Z,28.35
2023-01-23T20:29:06.644Z,31.48
2023-01-23T20:34:10.093Z,32.90
2023-01-23T20:39:14.170Z,34.90
2023-01-23T20:44:18.866Z,33.85
2023-01-23T20:49:23.427Z,30.52
2023-01-23T20:54:27.105Z,32.10
2023-01-23T20:59:32.525Z,31.00
2023-01-23T21:04:38.380Z,29.92
2023-01-23T21:09:41.914Z,30.52
2023-01-23T21:14:46.766Z,30.13
2023-01-23T21:19:50.360Z,27.25
2023-01-23T21:24:53.780Z,28.08
2023-01-23T21:29:58.627Z,26.45
2023-01-23T21:35:02.935Z,27.20
2023-01-23T21:40:08.586Z,26.25
2023-01-23T21:45:13.549Z,27.27
2023-01-23T21:50:18.317Z,29.08
2023-01-23T21:55:21.949Z,28.75
2023-01-23T22:00:52.739Z,26.27
2023-01-23T22:05:58.818Z,28.00
2023-01-23T22:11:02.212Z,26.45
2023-01-23T22:16:07.976Z,26.95
2023-01-23T22:21:11.852Z,24.80
2023-01-23T22:26:15.541Z,28.77
2023-01-23T22:31:20.391Z,25.98
2023-01-23T22:36:23.813Z,27.08
2023-01-23T22:41:29.072Z,27.83
2023-01-23T22:46:33.902Z,26.38
2023-01-23T22:51:37.660Z,27.88
2023-01-23T22:56:41.341Z,26.85
2023-01-23T23:01:46.067Z,28.27
2023-01-23T23:06:49.438Z,30.33
2023-01-23T23:11:52.872Z,30.65
2023-01-23T23:16:57.981Z,30.50
2023-01-23T23:22:01.376Z,26.83
2023-01-23T23:27:04.949Z,26.52
2023-01-23T23:32:10.014Z,28.08
2023-01-23T23:37:13.607Z,25.27
2023-01-23T23:42:17.431Z,26.83
2023-01-23T23:47:22.143Z,27.50
2023-01-23T23:52:25.553Z,27.00
2023-01-23T23:57:28.911Z,28.73
